sensor_id;sensor_type;location;lat;lon;timestamp;temperature;humidity
10722;DHT22;5412;59.450;18.124;2022-11-15T00:00:26;8.40;99.90
10722;DHT22;5412;59.450;18.124;2022-11-15T00:02:52;8.40;99.90
10722;DHT22;5412;59.450;18.124;2022-11-15T00:05:18;8.40;99.90
10722;DHT22;5412;59.450;18.124;2022-11-15T00:07:44;8.50;99.90
10722;DHT22;5412;59.450;18.124;2022-11-15T00:10:10;8.40;99.90
10722;DHT22;5412;59.450;18.124;2022-11-15T00:12:35;8.40;99.90
10722;DHT22;5412;59.450;18.124;2022-11-15T00:15:01;8.40;99.90
10722;DHT22;5412;59.450;18.124;2022-11-15T00:17:27;8.40;99.90
10722;DHT22;5412;59.450;18.124;2022-11-15T00:19:52;8.40;99.90
10722;DHT22;5412;59.450;18.124;2022-11-15T00:22:18;8.30;99.90
10722;DHT22;5412;59.450;18.124;2022-11-15T00:24:44;8.30;99.90
10722;DHT22;5412;59.450;18.124;2022-11-15T00:27:09;8.30;99.90
10722;DHT22;5412;59.450;18.124;2022-11-15T00:29:35;8.30;99.90
10722;DHT22;5412;59.450;18.124;2022-11-15T00:32:03;8.40;99.90
10722;DHT22;5412;59.450;18.124;2022-11-15T00:34:28;8.40;99.90
10722;DHT22;5412;59.450;18.124;2022-11-15T00:36:54;8.50;99.90
10722;DHT22;5412;59.450;18.124;2022-11-15T00:39:20;8.50;99.90
10722;DHT22;5412;59.450;18.124;2022-11-15T00:41:45;8.40;99.90
10722;DHT22;5412;59.450;18.124;2022-11-15T00:44:11;8.40;99.90
10722;DHT22;5412;59.450;18.124;2022-11-15T00:46:37;8.40;99.90
10722;DHT22;5412;59.450;18.124;2022-11-15T00:49:02;8.40;99.90
10722;DHT22;5412;59.450;18.124;2022-11-15T00:51:28;8.00;99.90
10722;DHT22;5412;59.450;18.124;2022-11-15T00:53:54;8.00;99.90
10722;DHT22;5412;59.450;18.124;2022-11-15T00:56:19;8.10;99.90
10722;DHT22;5412;59.450;18.124;2022-11-15T00:58:45;8.20;99.90
10722;DHT22;5412;59.450;18.124;2022-11-15T01:01:13;8.20;99.90
10722;DHT22;5412;59.450;18.124;2022-11-15T01:03:40;8.00;99.90
10722;DHT22;5412;59.450;18.124;2022-11-15T01:06:07;7.90;99.90
10722;DHT22;5412;59.450;18.124;2022-11-15T01:08:33;8.00;99.90
10722;DHT22;5412;59.450;18.124;2022-11-15T01:11:05;7.90;99.90
10722;DHT22;5412;59.450;18.124;2022-11-15T01:13:34;7.80;99.90
10722;DHT22;5412;59.450;18.124;2022-11-15T01:16:16;7.90;99.90
10722;DHT22;5412;59.450;18.124;2022-11-15T01:18:45;7.80;99.90
10722;DHT22;5412;59.450;18.124;2022-11-15T01:21:16;7.70;99.90
10722;DHT22;5412;59.450;18.124;2022-11-15T01:23:42;7.70;99.90
10722;DHT22;5412;59.450;18.124;2022-11-15T01:26:12;7.60;99.90
10722;DHT22;5412;59.450;18.124;2022-11-15T01:28:40;7.70;99.90
10722;DHT22;5412;59.450;18.124;2022-11-15T01:31:11;7.60;99.90
10722;DHT22;5412;59.450;18.124;2022-11-15T01:33:37;7.60;99.90
10722;DHT22;5412;59.450;18.124;2022-11-15T01:36:04;7.50;99.90
10722;DHT22;5412;59.450;18.124;2022-11-15T01:38:30;7.30;99.90
10722;DHT22;5412;59.450;18.124;2022-11-15T01:40:56;7.30;99.90
10722;DHT22;5412;59.450;18.124;2022-11-15T01:43:35;7.40;99.90
10722;DHT22;5412;59.450;18.124;2022-11-15T01:48:56;7.40;99.90
10722;DHT22;5412;59.450;18.124;2022-11-15T01:51:25;7.40;99.90
10722;DHT22;5412;59.450;18.124;2022-11-15T01:53:55;7.50;99.90
10722;DHT22;5412;59.450;18.124;2022-11-15T01:56:26;7.50;99.90
10722;DHT22;5412;59.450;18.124;2022-11-15T01:58:55;7.50;99.90
10722;DHT22;5412;59.450;18.124;2022-11-15T02:01:22;7.60;99.90
10722;DHT22;5412;59.450;18.124;2022-11-15T02:03:54;7.50;99.90
10722;DHT22;5412;59.450;18.124;2022-11-15T02:06:22;7.30;99.90
10722;DHT22;5412;59.450;18.124;2022-11-15T02:08:48;7.30;99.90
10722;DHT22;5412;59.450;18.124;2022-11-15T02:11:15;7.20;99.90
10722;DHT22;5412;59.450;18.124;2022-11-15T02:13:41;7.30;99.90
10722;DHT22;5412;59.450;18.124;2022-11-15T02:16:39;7.20;99.90
10722;DHT22;5412;59.450;18.124;2022-11-15T02:30:53;7.40;99.90
10722;DHT22;5412;59.450;18.124;2022-11-15T02:33:56;7.20;99.90
10722;DHT22;5412;59.450;18.124;2022-11-15T02:36:33;7.20;99.90
10722;DHT22;5412;59.450;18.124;2022-11-15T02:41:46;7.30;99.90
10722;DHT22;5412;59.450;18.124;2022-11-15T02:44:17;7.20;99.90
10722;DHT22;5412;59.450;18.124;2022-11-15T02:46:52;7.10;99.90
10722;DHT22;5412;59.450;18.124;2022-11-15T02:49:41;7.20;99.90
10722;DHT22;5412;59.450;18.124;2022-11-15T02:52:06;7.20;99.90
10722;DHT22;5412;59.450;18.124;2022-11-15T02:54:33;7.10;99.90
10722;DHT22;5412;59.450;18.124;2022-11-15T02:57:04;7.10;99.90
10722;DHT22;5412;59.450;18.124;2022-11-15T03:08:18;7.30;99.90
10722;DHT22;5412;59.450;18.124;2022-11-15T03:11:11;7.20;99.90
10722;DHT22;5412;59.450;18.124;2022-11-15T03:13:58;7.00;99.90
10722;DHT22;5412;59.450;18.124;2022-11-15T03:20:05;6.90;99.90
10722;DHT22;5412;59.450;18.124;2022-11-15T03:22:07;6.90;99.90
10722;DHT22;5412;59.450;18.124;2022-11-15T03:24:36;6.90;99.90
10722;DHT22;5412;59.450;18.124;2022-11-15T03:27:05;6.90;99.90
10722;DHT22;5412;59.450;18.124;2022-11-15T03:29:41;6.90;99.90
10722;DHT22;5412;59.450;18.124;2022-11-15T03:32:12;6.90;99.90
10722;DHT22;5412;59.450;18.124;2022-11-15T03:34:59;6.80;99.90
10722;DHT22;5412;59.450;18.124;2022-11-15T03:40:17;6.70;99.90
10722;DHT22;5412;59.450;18.124;2022-11-15T03:42:52;6.80;99.90
10722;DHT22;5412;59.450;18.124;2022-11-15T03:45:51;6.90;99.90
10722;DHT22;5412;59.450;18.124;2022-11-15T03:48:22;6.80;99.90
10722;DHT22;5412;59.450;18.124;2022-11-15T03:50:49;6.80;99.90
10722;DHT22;5412;59.450;18.124;2022-11-15T03:53:16;6.80;99.90
10722;DHT22;5412;59.450;18.124;2022-11-15T03:55:42;6.70;99.90
10722;DHT22;5412;59.450;18.124;2022-11-15T03:58:07;6.80;99.90
10722;DHT22;5412;59.450;18.124;2022-11-15T04:00:33;6.80;99.90
10722;DHT22;5412;59.450;18.124;2022-11-15T04:02:59;6.80;99.90
10722;DHT22;5412;59.450;18.124;2022-11-15T04:05:25;6.90;99.90
10722;DHT22;5412;59.450;18.124;2022-11-15T04:07:50;6.90;99.90
10722;DHT22;5412;59.450;18.124;2022-11-15T04:10:16;6.90;99.90
10722;DHT22;5412;59.450;18.124;2022-11-15T04:12:43;6.80;99.90
10722;DHT22;5412;59.450;18.124;2022-11-15T04:15:17;6.90;99.90
10722;DHT22;5412;59.450;18.124;2022-11-15T04:17:48;6.90;99.90
10722;DHT22;5412;59.450;18.124;2022-11-15T04:20:29;6.70;99.90
10722;DHT22;5412;59.450;18.124;2022-11-15T04:23:21;6.80;99.90
10722;DHT22;5412;59.450;18.124;2022-11-15T04:26:10;6.80;99.90
10722;DHT22;5412;59.450;18.124;2022-11-15T04:28:37;6.80;99.90
10722;DHT22;5412;59.450;18.124;2022-11-15T04:31:26;6.70;99.90
10722;DHT22;5412;59.450;18.124;2022-11-15T04:33:52;6.70;99.90
10722;DHT22;5412;59.450;18.124;2022-11-15T04:36:18;6.80;99.90
10722;DHT22;5412;59.450;18.124;2022-11-15T04:39:15;6.90;99.90
10722;DHT22;5412;59.450;18.124;2022-11-15T04:41:41;6.90;99.90
10722;DHT22;5412;59.450;18.124;2022-11-15T04:44:07;7.00;99.90
10722;DHT22;5412;59.450;18.124;2022-11-15T04:46:33;7.00;99.90
10722;DHT22;5412;59.450;18.124;2022-11-15T04:48:58;7.00;99.90
10722;DHT22;5412;59.450;18.124;2022-11-15T04:51:24;7.10;99.90
10722;DHT22;5412;59.450;18.124;2022-11-15T04:53:49;7.10;99.90
10722;DHT22;5412;59.450;18.124;2022-11-15T04:56:15;7.10;99.90
10722;DHT22;5412;59.450;18.124;2022-11-15T04:58:41;7.20;99.90
10722;DHT22;5412;59.450;18.124;2022-11-15T05:01:11;7.30;99.90
10722;DHT22;5412;59.450;18.124;2022-11-15T05:03:39;7.20;99.90
10722;DHT22;5412;59.450;18.124;2022-11-15T05:06:23;7.20;99.90
10722;DHT22;5412;59.450;18.124;2022-11-15T05:08:48;7.10;99.90
10722;DHT22;5412;59.450;18.124;2022-11-15T05:11:14;7.10;99.90
10722;DHT22;5412;59.450;18.124;2022-11-15T05:13:40;7.00;99.90
10722;DHT22;5412;59.450;18.124;2022-11-15T05:16:06;7.00;99.90
10722;DHT22;5412;59.450;18.124;2022-11-15T05:18:31;6.90;99.90
10722;DHT22;5412;59.450;18.124;2022-11-15T05:21:06;6.90;99.90
10722;DHT22;5412;59.450;18.124;2022-11-15T05:23:32;7.00;99.90
10722;DHT22;5412;59.450;18.124;2022-11-15T05:26:05;7.00;99.90
10722;DHT22;5412;59.450;18.124;2022-11-15T05:28:32;7.10;99.90
10722;DHT22;5412;59.450;18.124;2022-11-15T05:31:07;7.10;99.90
10722;DHT22;5412;59.450;18.124;2022-11-15T05:33:35;7.10;99.90
10722;DHT22;5412;59.450;18.124;2022-11-15T05:38:37;7.00;99.90
10722;DHT22;5412;59.450;18.124;2022-11-15T05:41:04;7.00;99.90
10722;DHT22;5412;59.450;18.124;2022-11-15T05:43:32;7.00;99.90
10722;DHT22;5412;59.450;18.124;2022-11-15T05:45:59;7.00;99.90
10722;DHT22;5412;59.450;18.124;2022-11-15T05:48:25;7.00;99.90
10722;DHT22;5412;59.450;18.124;2022-11-15T05:50:51;7.10;99.90
10722;DHT22;5412;59.450;18.124;2022-11-15T05:53:19;7.00;99.90
10722;DHT22;5412;59.450;18.124;2022-11-15T05:55:47;7.10;99.90
10722;DHT22;5412;59.450;18.124;2022-11-15T05:58:13;7.00;99.90
10722;DHT22;5412;59.450;18.124;2022-11-15T06:00:39;6.90;99.90
10722;DHT22;5412;59.450;18.124;2022-11-15T06:03:05;6.90;99.90
10722;DHT22;5412;59.450;18.124;2022-11-15T06:05:31;6.90;99.90
10722;DHT22;5412;59.450;18.124;2022-11-15T06:07:59;6.90;99.90
10722;DHT22;5412;59.450;18.124;2022-11-15T06:10:26;6.90;99.90
10722;DHT22;5412;59.450;18.124;2022-11-15T06:12:59;6.90;99.90
10722;DHT22;5412;59.450;18.124;2022-11-15T06:15:25;6.80;99.90
10722;DHT22;5412;59.450;18.124;2022-11-15T06:17:51;7.00;99.90
10722;DHT22;5412;59.450;18.124;2022-11-15T06:20:17;6.90;99.90
10722;DHT22;5412;59.450;18.124;2022-11-15T06:22:43;7.00;99.90
10722;DHT22;5412;59.450;18.124;2022-11-15T06:25:08;7.00;99.90
10722;DHT22;5412;59.450;18.124;2022-11-15T06:27:34;6.90;99.90
10722;DHT22;5412;59.450;18.124;2022-11-15T06:30:00;7.00;99.90
10722;DHT22;5412;59.450;18.124;2022-11-15T06:32:25;7.00;99.90
10722;DHT22;5412;59.450;18.124;2022-11-15T06:34:51;7.00;99.90
10722;DHT22;5412;59.450;18.124;2022-11-15T06:37:17;7.10;99.90
10722;DHT22;5412;59.450;18.124;2022-11-15T06:39:42;7.20;99.90
10722;DHT22;5412;59.450;18.124;2022-11-15T06:42:08;7.20;99.90
10722;DHT22;5412;59.450;18.124;2022-11-15T06:44:34;7.30;99.90
10722;DHT22;5412;59.450;18.124;2022-11-15T06:47:00;7.30;99.90
10722;DHT22;5412;59.450;18.124;2022-11-15T06:49:25;7.20;99.90
10722;DHT22;5412;59.450;18.124;2022-11-15T06:51:51;7.20;99.90
10722;DHT22;5412;59.450;18.124;2022-11-15T06:54:17;7.10;99.90
10722;DHT22;5412;59.450;18.124;2022-11-15T06:56:42;7.20;99.90
10722;DHT22;5412;59.450;18.124;2022-11-15T06:59:08;7.30;99.90
10722;DHT22;5412;59.450;18.124;2022-11-15T07:01:34;7.30;99.90
10722;DHT22;5412;59.450;18.124;2022-11-15T07:03:59;7.30;99.90
10722;DHT22;5412;59.450;18.124;2022-11-15T07:06:25;7.20;99.90
10722;DHT22;5412;59.450;18.124;2022-11-15T07:08:51;7.20;99.90
10722;DHT22;5412;59.450;18.124;2022-11-15T07:11:16;7.20;99.90
10722;DHT22;5412;59.450;18.124;2022-11-15T07:13:42;7.30;99.90
10722;DHT22;5412;59.450;18.124;2022-11-15T07:16:09;7.40;99.90
10722;DHT22;5412;59.450;18.124;2022-11-15T07:18:39;7.50;99.90
10722;DHT22;5412;59.450;18.124;2022-11-15T07:21:08;7.50;99.90
10722;DHT22;5412;59.450;18.124;2022-11-15T07:23:36;7.40;99.90
10722;DHT22;5412;59.450;18.124;2022-11-15T07:26:03;7.50;99.90
10722;DHT22;5412;59.450;18.124;2022-11-15T07:28:29;7.40;99.90
10722;DHT22;5412;59.450;18.124;2022-11-15T07:30:54;7.30;99.90
10722;DHT22;5412;59.450;18.124;2022-11-15T07:33:20;7.40;99.90
10722;DHT22;5412;59.450;18.124;2022-11-15T07:35:46;7.40;99.90
10722;DHT22;5412;59.450;18.124;2022-11-15T07:38:15;8.10;99.90
10722;DHT22;5412;59.450;18.124;2022-11-15T07:40:45;7.20;99.90
10722;DHT22;5412;59.450;18.124;2022-11-15T07:43:10;7.10;99.90
10722;DHT22;5412;59.450;18.124;2022-11-15T07:45:43;7.20;99.90
10722;DHT22;5412;59.450;18.124;2022-11-15T07:48:09;7.10;99.90
10722;DHT22;5412;59.450;18.124;2022-11-15T07:50:35;7.10;99.90
10722;DHT22;5412;59.450;18.124;2022-11-15T07:53:01;7.20;99.90
10722;DHT22;5412;59.450;18.124;2022-11-15T07:55:27;7.20;99.90
10722;DHT22;5412;59.450;18.124;2022-11-15T07:58:05;7.30;99.90
10722;DHT22;5412;59.450;18.124;2022-11-15T08:00:32;7.30;99.90
10722;DHT22;5412;59.450;18.124;2022-11-15T08:03:11;7.30;99.90
10722;DHT22;5412;59.450;18.124;2022-11-15T08:05:39;7.20;99.90
10722;DHT22;5412;59.450;18.124;2022-11-15T08:08:05;7.30;99.90
10722;DHT22;5412;59.450;18.124;2022-11-15T08:10:31;7.30;99.90
10722;DHT22;5412;59.450;18.124;2022-11-15T08:13:09;7.30;99.90
10722;DHT22;5412;59.450;18.124;2022-11-15T08:15:35;7.30;99.90
10722;DHT22;5412;59.450;18.124;2022-11-15T08:18:04;7.40;99.90
10722;DHT22;5412;59.450;18.124;2022-11-15T08:20:31;7.40;99.90
10722;DHT22;5412;59.450;18.124;2022-11-15T08:23:01;7.30;99.90
10722;DHT22;5412;59.450;18.124;2022-11-15T08:25:28;7.20;99.90
10722;DHT22;5412;59.450;18.124;2022-11-15T08:27:57;7.20;99.90
10722;DHT22;5412;59.450;18.124;2022-11-15T08:30:23;7.10;99.90
10722;DHT22;5412;59.450;18.124;2022-11-15T08:32:50;7.20;99.90
10722;DHT22;5412;59.450;18.124;2022-11-15T08:35:16;7.10;99.90
10722;DHT22;5412;59.450;18.124;2022-11-15T08:37:42;7.10;99.90
10722;DHT22;5412;59.450;18.124;2022-11-15T08:40:08;7.10;99.90
10722;DHT22;5412;59.450;18.124;2022-11-15T08:42:35;7.20;99.90
10722;DHT22;5412;59.450;18.124;2022-11-15T08:45:01;7.20;99.90
10722;DHT22;5412;59.450;18.124;2022-11-15T08:47:26;7.30;99.90
10722;DHT22;5412;59.450;18.124;2022-11-15T08:49:52;7.20;99.90
10722;DHT22;5412;59.450;18.124;2022-11-15T08:52:18;7.20;99.90
10722;DHT22;5412;59.450;18.124;2022-11-15T08:54:44;7.30;99.90
10722;DHT22;5412;59.450;18.124;2022-11-15T08:57:10;7.40;99.90
10722;DHT22;5412;59.450;18.124;2022-11-15T08:59:36;7.30;99.90
10722;DHT22;5412;59.450;18.124;2022-11-15T09:02:02;7.30;99.90
10722;DHT22;5412;59.450;18.124;2022-11-15T09:04:28;7.30;99.90
10722;DHT22;5412;59.450;18.124;2022-11-15T09:06:54;7.40;99.90
10722;DHT22;5412;59.450;18.124;2022-11-15T09:09:20;7.10;99.90
10722;DHT22;5412;59.450;18.124;2022-11-15T09:11:45;7.40;99.90
10722;DHT22;5412;59.450;18.124;2022-11-15T09:14:12;7.40;99.90
10722;DHT22;5412;59.450;18.124;2022-11-15T09:16:38;7.40;99.90
10722;DHT22;5412;59.450;18.124;2022-11-15T09:19:04;7.30;99.90
10722;DHT22;5412;59.450;18.124;2022-11-15T09:21:30;7.40;99.90
10722;DHT22;5412;59.450;18.124;2022-11-15T09:23:56;7.50;99.90
10722;DHT22;5412;59.450;18.124;2022-11-15T09:26:22;7.50;99.90
10722;DHT22;5412;59.450;18.124;2022-11-15T09:28:48;7.60;99.90
10722;DHT22;5412;59.450;18.124;2022-11-15T09:31:13;7.50;99.90
10722;DHT22;5412;59.450;18.124;2022-11-15T09:33:39;7.50;99.90
10722;DHT22;5412;59.450;18.124;2022-11-15T09:36:07;7.40;99.90
10722;DHT22;5412;59.450;18.124;2022-11-15T09:38:33;7.50;99.90
10722;DHT22;5412;59.450;18.124;2022-11-15T09:46:46;7.50;99.90
10722;DHT22;5412;59.450;18.124;2022-11-15T09:49:17;7.50;99.90
10722;DHT22;5412;59.450;18.124;2022-11-15T09:51:47;7.50;99.90
10722;DHT22;5412;59.450;18.124;2022-11-15T10:05:41;7.40;99.90
10722;DHT22;5412;59.450;18.124;2022-11-15T10:11:14;7.50;99.90
10722;DHT22;5412;59.450;18.124;2022-11-15T10:13:43;7.60;99.90
10722;DHT22;5412;59.450;18.124;2022-11-15T10:16:33;7.40;99.90
10722;DHT22;5412;59.450;18.124;2022-11-15T10:19:16;7.50;99.90
10722;DHT22;5412;59.450;18.124;2022-11-15T10:21:56;7.60;99.90
10722;DHT22;5412;59.450;18.124;2022-11-15T10:24:27;7.70;99.90
10722;DHT22;5412;59.450;18.124;2022-11-15T10:26:55;7.80;99.90
10722;DHT22;5412;59.450;18.124;2022-11-15T10:29:22;7.80;99.90
10722;DHT22;5412;59.450;18.124;2022-11-15T10:31:48;7.70;99.90
10722;DHT22;5412;59.450;18.124;2022-11-15T10:34:20;7.70;99.90
10722;DHT22;5412;59.450;18.124;2022-11-15T10:36:59;7.60;99.90
10722;DHT22;5412;59.450;18.124;2022-11-15T10:39:27;7.60;99.90
10722;DHT22;5412;59.450;18.124;2022-11-15T10:41:53;7.60;99.90
10722;DHT22;5412;59.450;18.124;2022-11-15T10:44:23;7.70;99.90
10722;DHT22;5412;59.450;18.124;2022-11-15T10:49:26;7.70;99.90
10722;DHT22;5412;59.450;18.124;2022-11-15T10:52:14;7.60;99.90
10722;DHT22;5412;59.450;18.124;2022-11-15T10:57:26;7.40;99.90
10722;DHT22;5412;59.450;18.124;2022-11-15T10:59:58;7.50;99.90
10722;DHT22;5412;59.450;18.124;2022-11-15T11:02:35;7.50;99.90
10722;DHT22;5412;59.450;18.124;2022-11-15T11:05:03;7.40;99.90
10722;DHT22;5412;59.450;18.124;2022-11-15T11:07:32;7.40;99.90
10722;DHT22;5412;59.450;18.124;2022-11-15T11:10:05;7.40;99.90
10722;DHT22;5412;59.450;18.124;2022-11-15T11:12:42;6.90;99.90
10722;DHT22;5412;59.450;18.124;2022-11-15T11:15:15;7.60;99.90
10722;DHT22;5412;59.450;18.124;2022-11-15T11:20:39;6.90;99.90
10722;DHT22;5412;59.450;18.124;2022-11-15T11:23:26;7.50;99.90
10722;DHT22;5412;59.450;18.124;2022-11-15T11:26:40;7.60;99.90
10722;DHT22;5412;59.450;18.124;2022-11-15T11:36:48;7.60;99.90
10722;DHT22;5412;59.450;18.124;2022-11-15T11:47:24;7.50;99.90
10722;DHT22;5412;59.450;18.124;2022-11-15T11:50:02;7.50;99.90
10722;DHT22;5412;59.450;18.124;2022-11-15T11:52:43;7.40;99.90
10722;DHT22;5412;59.450;18.124;2022-11-15T11:58:34;7.30;99.90
10722;DHT22;5412;59.450;18.124;2022-11-15T12:06:42;7.30;99.90
10722;DHT22;5412;59.450;18.124;2022-11-15T12:12:09;7.30;99.90
10722;DHT22;5412;59.450;18.124;2022-11-15T12:17:28;7.20;99.90
10722;DHT22;5412;59.450;18.124;2022-11-15T12:20:03;7.20;99.90
10722;DHT22;5412;59.450;18.124;2022-11-15T12:22:52;7.30;99.90
10722;DHT22;5412;59.450;18.124;2022-11-15T12:25:44;7.40;99.90
10722;DHT22;5412;59.450;18.124;2022-11-15T12:28:24;7.50;99.90
10722;DHT22;5412;59.450;18.124;2022-11-15T12:30:59;7.60;99.90
10722;DHT22;5412;59.450;18.124;2022-11-15T12:33:47;7.60;99.90
10722;DHT22;5412;59.450;18.124;2022-11-15T12:41:36;7.70;99.90
10722;DHT22;5412;59.450;18.124;2022-11-15T12:44:03;7.60;99.90
10722;DHT22;5412;59.450;18.124;2022-11-15T12:48:57;7.50;99.90
10722;DHT22;5412;59.450;18.124;2022-11-15T12:59:52;7.20;99.90
10722;DHT22;5412;59.450;18.124;2022-11-15T13:17:47;7.50;99.90
10722;DHT22;5412;59.450;18.124;2022-11-15T13:25:19;7.20;99.90
10722;DHT22;5412;59.450;18.124;2022-11-15T13:27:48;7.10;99.90
10722;DHT22;5412;59.450;18.124;2022-11-15T13:30:26;7.10;99.90
10722;DHT22;5412;59.450;18.124;2022-11-15T13:32:53;7.10;99.90
10722;DHT22;5412;59.450;18.124;2022-11-15T13:35:24;7.10;99.90
10722;DHT22;5412;59.450;18.124;2022-11-15T13:37:50;7.10;99.90
10722;DHT22;5412;59.450;18.124;2022-11-15T13:40:34;7.20;99.90
10722;DHT22;5412;59.450;18.124;2022-11-15T13:43:22;7.10;99.90
10722;DHT22;5412;59.450;18.124;2022-11-15T13:49:07;7.00;99.90
10722;DHT22;5412;59.450;18.124;2022-11-15T13:51:53;7.00;99.90
10722;DHT22;5412;59.450;18.124;2022-11-15T13:57:03;6.90;99.90
10722;DHT22;5412;59.450;18.124;2022-11-15T13:59:33;6.90;99.90
10722;DHT22;5412;59.450;18.124;2022-11-15T14:02:11;6.90;99.90
10722;DHT22;5412;59.450;18.124;2022-11-15T14:04:39;7.00;99.90
10722;DHT22;5412;59.450;18.124;2022-11-15T14:07:16;6.90;99.90
10722;DHT22;5412;59.450;18.124;2022-11-15T14:09:43;6.90;99.90
10722;DHT22;5412;59.450;18.124;2022-11-15T14:12:49;6.90;99.90
10722;DHT22;5412;59.450;18.124;2022-11-15T14:15:35;6.80;99.90
10722;DHT22;5412;59.450;18.124;2022-11-15T14:18:02;6.80;99.90
10722;DHT22;5412;59.450;18.124;2022-11-15T14:20:36;6.90;99.90
10722;DHT22;5412;59.450;18.124;2022-11-15T14:23:24;6.90;99.90
10722;DHT22;5412;59.450;18.124;2022-11-15T14:25:55;7.00;99.90
10722;DHT22;5412;59.450;18.124;2022-11-15T14:30:51;6.90;99.90
10722;DHT22;5412;59.450;18.124;2022-11-15T14:33:33;7.00;99.90
10722;DHT22;5412;59.450;18.124;2022-11-15T14:38:36;6.90;99.90
10722;DHT22;5412;59.450;18.124;2022-11-15T14:41:02;7.10;99.90
10722;DHT22;5412;59.450;18.124;2022-11-15T14:43:27;7.10;99.90
10722;DHT22;5412;59.450;18.124;2022-11-15T14:45:53;7.10;99.90
10722;DHT22;5412;59.450;18.124;2022-11-15T14:48:19;7.00;99.90
10722;DHT22;5412;59.450;18.124;2022-11-15T14:50:45;6.90;99.90
10722;DHT22;5412;59.450;18.124;2022-11-15T14:53:19;6.90;99.90
10722;DHT22;5412;59.450;18.124;2022-11-15T14:55:46;6.70;99.90
10722;DHT22;5412;59.450;18.124;2022-11-15T14:58:11;6.60;99.90
10722;DHT22;5412;59.450;18.124;2022-11-15T15:00:39;6.50;99.90
10722;DHT22;5412;59.450;18.124;2022-11-15T15:03:05;6.50;99.90
10722;DHT22;5412;59.450;18.124;2022-11-15T15:07:57;6.40;99.90
10722;DHT22;5412;59.450;18.124;2022-11-15T15:10:30;6.40;99.90
10722;DHT22;5412;59.450;18.124;2022-11-15T15:12:56;6.30;99.90
10722;DHT22;5412;59.450;18.124;2022-11-15T15:15:25;6.30;99.90
10722;DHT22;5412;59.450;18.124;2022-11-15T15:17:51;6.30;99.90
10722;DHT22;5412;59.450;18.124;2022-11-15T15:20:17;6.40;99.90
10722;DHT22;5412;59.450;18.124;2022-11-15T15:22:43;6.40;99.90
10722;DHT22;5412;59.450;18.124;2022-11-15T15:25:34;6.40;99.90
10722;DHT22;5412;59.450;18.124;2022-11-15T15:28:01;6.40;99.90
10722;DHT22;5412;59.450;18.124;2022-11-15T15:30:29;6.40;99.90
10722;DHT22;5412;59.450;18.124;2022-11-15T15:32:55;6.30;99.90
10722;DHT22;5412;59.450;18.124;2022-11-15T15:35:21;6.40;99.90
10722;DHT22;5412;59.450;18.124;2022-11-15T15:37:48;6.40;99.90
10722;DHT22;5412;59.450;18.124;2022-11-15T15:40:17;6.50;99.90
10722;DHT22;5412;59.450;18.124;2022-11-15T15:42:44;6.50;99.90
10722;DHT22;5412;59.450;18.124;2022-11-15T15:45:10;6.60;99.90
10722;DHT22;5412;59.450;18.124;2022-11-15T15:47:36;6.70;99.90
10722;DHT22;5412;59.450;18.124;2022-11-15T15:50:02;6.80;99.90
10722;DHT22;5412;59.450;18.124;2022-11-15T15:52:28;6.80;99.90
10722;DHT22;5412;59.450;18.124;2022-11-15T15:54:54;6.70;99.90
10722;DHT22;5412;59.450;18.124;2022-11-15T15:57:20;6.70;99.90
10722;DHT22;5412;59.450;18.124;2022-11-15T15:59:45;6.70;99.90
10722;DHT22;5412;59.450;18.124;2022-11-15T16:02:12;6.70;99.90
10722;DHT22;5412;59.450;18.124;2022-11-15T16:04:38;6.70;99.90
10722;DHT22;5412;59.450;18.124;2022-11-15T16:07:04;6.70;99.90
10722;DHT22;5412;59.450;18.124;2022-11-15T16:09:30;6.60;99.90
10722;DHT22;5412;59.450;18.124;2022-11-15T16:12:14;6.70;99.90
10722;DHT22;5412;59.450;18.124;2022-11-15T16:14:42;6.60;99.90
10722;DHT22;5412;59.450;18.124;2022-11-15T16:17:19;6.60;99.90
10722;DHT22;5412;59.450;18.124;2022-11-15T16:19:46;6.50;99.90
10722;DHT22;5412;59.450;18.124;2022-11-15T16:22:12;6.50;99.90
10722;DHT22;5412;59.450;18.124;2022-11-15T16:24:38;6.50;99.90
10722;DHT22;5412;59.450;18.124;2022-11-15T16:27:04;6.50;99.90
10722;DHT22;5412;59.450;18.124;2022-11-15T16:29:29;6.60;99.90
10722;DHT22;5412;59.450;18.124;2022-11-15T16:31:55;6.60;99.90
10722;DHT22;5412;59.450;18.124;2022-11-15T16:34:21;6.60;99.90
10722;DHT22;5412;59.450;18.124;2022-11-15T16:36:47;6.60;99.90
10722;DHT22;5412;59.450;18.124;2022-11-15T16:39:13;6.60;99.90
10722;DHT22;5412;59.450;18.124;2022-11-15T16:41:41;6.60;99.90
10722;DHT22;5412;59.450;18.124;2022-11-15T16:44:08;6.70;99.90
10722;DHT22;5412;59.450;18.124;2022-11-15T16:46:34;6.70;99.90
10722;DHT22;5412;59.450;18.124;2022-11-15T16:49:00;6.80;99.90
10722;DHT22;5412;59.450;18.124;2022-11-15T16:51:25;6.80;99.90
10722;DHT22;5412;59.450;18.124;2022-11-15T16:53:51;6.70;99.90
10722;DHT22;5412;59.450;18.124;2022-11-15T16:58:45;6.50;99.90
10722;DHT22;5412;59.450;18.124;2022-11-15T17:01:18;6.50;99.90
10722;DHT22;5412;59.450;18.124;2022-11-15T17:03:44;6.50;99.90
10722;DHT22;5412;59.450;18.124;2022-11-15T17:06:12;6.50;99.90
10722;DHT22;5412;59.450;18.124;2022-11-15T17:08:38;6.40;99.90
10722;DHT22;5412;59.450;18.124;2022-11-15T17:11:07;6.40;99.90
10722;DHT22;5412;59.450;18.124;2022-11-15T17:13:33;6.30;99.90
10722;DHT22;5412;59.450;18.124;2022-11-15T17:16:10;6.40;99.90
10722;DHT22;5412;59.450;18.124;2022-11-15T17:18:37;6.50;99.90
10722;DHT22;5412;59.450;18.124;2022-11-15T17:21:11;6.40;99.90
10722;DHT22;5412;59.450;18.124;2022-11-15T17:23:37;6.50;99.90
10722;DHT22;5412;59.450;18.124;2022-11-15T17:26:04;6.40;99.90
10722;DHT22;5412;59.450;18.124;2022-11-15T17:28:34;6.50;99.90
10722;DHT22;5412;59.450;18.124;2022-11-15T17:30:59;6.40;99.90
10722;DHT22;5412;59.450;18.124;2022-11-15T17:33:26;6.40;99.90
10722;DHT22;5412;59.450;18.124;2022-11-15T17:35:59;6.40;99.90
10722;DHT22;5412;59.450;18.124;2022-11-15T17:38:26;6.60;99.90
10722;DHT22;5412;59.450;18.124;2022-11-15T17:41:09;5.70;99.90
10722;DHT22;5412;59.450;18.124;2022-11-15T17:43:36;6.70;99.90
10722;DHT22;5412;59.450;18.124;2022-11-15T17:46:04;6.80;99.90
10722;DHT22;5412;59.450;18.124;2022-11-15T17:48:31;6.90;99.90
10722;DHT22;5412;59.450;18.124;2022-11-15T17:51:02;6.90;99.90
10722;DHT22;5412;59.450;18.124;2022-11-15T17:53:36;7.00;99.90
10722;DHT22;5412;59.450;18.124;2022-11-15T17:56:04;6.80;99.90
10722;DHT22;5412;59.450;18.124;2022-11-15T17:58:31;6.70;99.90
10722;DHT22;5412;59.450;18.124;2022-11-15T18:01:11;6.60;99.90
10722;DHT22;5412;59.450;18.124;2022-11-15T18:03:38;6.60;99.90
10722;DHT22;5412;59.450;18.124;2022-11-15T18:06:05;6.60;99.90
10722;DHT22;5412;59.450;18.124;2022-11-15T18:08:32;6.50;99.90
10722;DHT22;5412;59.450;18.124;2022-11-15T18:11:11;6.40;99.90
10722;DHT22;5412;59.450;18.124;2022-11-15T18:13:38;6.40;99.90
10722;DHT22;5412;59.450;18.124;2022-11-15T18:16:06;6.30;99.90
10722;DHT22;5412;59.450;18.124;2022-11-15T18:18:33;6.30;99.90
10722;DHT22;5412;59.450;18.124;2022-11-15T18:21:06;6.30;99.90
10722;DHT22;5412;59.450;18.124;2022-11-15T18:23:33;6.30;99.90
10722;DHT22;5412;59.450;18.124;2022-11-15T18:26:04;6.30;99.90